Time;durP1;ratioP1;P1;durP2;ratioP2;P2;SDS_P1;SDS_P2;PMS_P1;PMS_P2;Temp;Humidity;BMP_temperature;BMP_pressure;BME280_temperature;BME280_humidity;BME280_pressure;Samples;Min_cycle;Max_cycle;Signal;HPM_P1;HPM_P2
2023/10/04 00:00:20;;;;;;;1.42;0.60;;;13.80;99.90;;;;;;4434389;32;20143;-63
2023/10/04 00:02:49;;;;;;;1.17;0.30;;;13.90;99.90;;;;;;4412252;32;20110;-62
2023/10/04 00:05:16;;;;;;;0.40;0.40;;;13.90;99.90;;;;;;4435812;32;20077;-62
2023/10/04 00:07:43;;;;;;;0.20;0.20;;;13.90;99.90;;;;;;4435641;32;20097;-63
2023/10/04 00:10:09;;;;;;;0.37;0.37;;;13.90;99.90;;;;;;4416136;32;20084;-62
2023/10/04 00:12:34;;;;;;;0.20;0.20;;;13.90;99.90;;;;;;4434189;32;20054;-63
2023/10/04 00:15:00;;;;;;;0.50;0.50;;;13.90;99.90;;;;;;4435599;32;20346;-62
2023/10/04 00:17:25;;;;;;;0.20;0.20;;;13.80;99.90;;;;;;4424017;32;20053;-63
2023/10/04 00:19:52;;;;;;;0.35;0.35;;;13.80;99.90;;;;;;4419699;32;20169;-62
2023/10/04 00:22:22;;;;;;;16.25;0.50;;;13.70;99.90;;;;;;4437066;32;20139;-63
2023/10/04 00:24:50;;;;;;;1.33;0.80;;;13.70;99.90;;;;;;4438187;32;20556;-62
2023/10/04 00:27:15;;;;;;;0.60;0.50;;;13.70;99.90;;;;;;4440582;32;20112;-63
2023/10/04 00:29:41;;;;;;;2.47;1.17;;;13.70;99.90;;;;;;4432115;32;20216;-62
2023/10/04 00:32:06;;;;;;;0.80;0.80;;;13.60;99.90;;;;;;4437399;32;20154;-62
2023/10/04 00:34:33;;;;;;;0.20;0.20;;;13.50;99.90;;;;;;4435852;32;20081;-62
2023/10/04 00:36:59;;;;;;;3.92;1.35;;;13.50;99.90;;;;;;4432920;32;20065;-61
2023/10/04 00:39:25;;;;;;;0.20;0.20;;;13.40;99.90;;;;;;4431690;32;20086;-62
2023/10/04 00:41:53;;;;;;;0.30;0.30;;;13.40;99.90;;;;;;4434843;32;20089;-63
2023/10/04 00:44:19;;;;;;;0.20;0.20;;;13.40;99.90;;;;;;4433120;32;20093;-62
2023/10/04 00:46:45;;;;;;;0.20;0.20;;;13.40;99.90;;;;;;4436115;32;20068;-63
2023/10/04 00:49:12;;;;;;;0.20;0.20;;;13.40;99.90;;;;;;4434475;32;20113;-62
2023/10/04 00:51:39;;;;;;;0.20;0.20;;;13.40;99.90;;;;;;4432493;32;20120;-64
2023/10/04 00:54:08;;;;;;;0.55;0.55;;;13.40;99.90;;;;;;4433669;32;21299;-64
2023/10/04 00:56:35;;;;;;;2.10;1.17;;;13.40;99.90;;;;;;4433932;32;20065;-64
2023/10/04 00:59:03;;;;;;;0.20;0.20;;;13.30;99.90;;;;;;4432966;32;20109;-63
2023/10/04 01:01:30;;;;;;;0.30;0.30;;;13.40;99.90;;;;;;4431072;32;20137;-63
2023/10/04 01:03:55;;;;;;;0.22;0.22;;;13.40;99.90;;;;;;4430948;32;20081;-62
2023/10/04 01:06:21;;;;;;;0.20;0.20;;;13.30;99.90;;;;;;4428564;32;20101;-64
2023/10/04 01:08:47;;;;;;;0.30;0.30;;;13.40;99.90;;;;;;4420390;32;20121;-64
2023/10/04 01:11:13;;;;;;;1.08;0.98;;;13.40;99.90;;;;;;4406247;32;20085;-63
2023/10/04 01:13:39;;;;;;;0.32;0.32;;;13.40;99.90;;;;;;4433825;32;20108;-64
2023/10/04 01:16:09;;;;;;;0.30;0.30;;;13.40;99.90;;;;;;4419736;32;20123;-64
2023/10/04 01:18:35;;;;;;;0.60;0.60;;;13.40;99.90;;;;;;4418118;32;20080;-62
2023/10/04 01:21:01;;;;;;;0.20;0.20;;;13.30;99.90;;;;;;4432118;32;20701;-64
2023/10/04 01:23:28;;;;;;;0.20;0.20;;;13.30;99.90;;;;;;4430822;32;20068;-62
2023/10/04 01:25:54;;;;;;;7.87;0.75;;;13.30;99.90;;;;;;4430699;32;20094;-63
2023/10/04 01:28:27;;;;;;;0.85;0.50;;;13.30;99.90;;;;;;4431666;32;20070;-63
2023/10/04 01:30:54;;;;;;;0.20;0.20;;;13.40;99.90;;;;;;4430351;32;20057;-63
2023/10/04 01:33:22;;;;;;;0.40;0.40;;;13.30;99.90;;;;;;4418063;32;20077;-63
2023/10/04 01:35:51;;;;;;;2.53;0.50;;;13.20;99.90;;;;;;4433215;32;20127;-64
2023/10/04 01:38:17;;;;;;;0.30;0.30;;;13.20;99.90;;;;;;4414362;32;20069;-64
2023/10/04 01:40:47;;;;;;;1.10;0.50;;;13.20;99.90;;;;;;4415790;32;20571;-64
2023/10/04 01:43:16;;;;;;;0.55;0.55;;;13.20;99.90;;;;;;4435109;32;20089;-64
2023/10/04 01:45:51;;;;;;;0.30;0.30;;;13.10;99.90;;;;;;4418756;32;20743;-64
2023/10/04 01:48:20;;;;;;;0.40;0.40;;;13.10;99.90;;;;;;4408754;32;20084;-63
2023/10/04 01:50:48;;;;;;;0.37;0.37;;;13.00;99.90;;;;;;4419618;32;20089;-63
2023/10/04 01:53:13;;;;;;;5.72;1.15;;;13.00;99.90;;;;;;4418110;32;20466;-63
2023/10/04 01:55:40;;;;;;;1.25;1.08;;;13.00;99.90;;;;;;4431881;32;20093;-64
2023/10/04 01:58:06;;;;;;;0.62;0.60;;;13.00;99.90;;;;;;4430595;32;20092;-62
2023/10/04 02:00:33;;;;;;;0.30;0.30;;;12.90;99.90;;;;;;4434349;32;20453;-63
2023/10/04 02:03:01;;;;;;;5.55;0.80;;;12.90;99.90;;;;;;4433448;32;20105;-62
2023/10/04 02:05:31;;;;;;;1.98;1.12;;;12.90;99.90;;;;;;4434201;32;20109;-61
2023/10/04 02:07:57;;;;;;;0.40;0.40;;;12.90;99.90;;;;;;4419400;32;20130;-61
2023/10/04 02:10:24;;;;;;;0.40;0.40;;;12.90;99.90;;;;;;4432329;32;20090;-62
2023/10/04 02:12:50;;;;;;;0.35;0.35;;;12.90;99.90;;;;;;4405298;32;20120;-63
2023/10/04 02:15:17;;;;;;;19.95;0.85;;;13.00;99.90;;;;;;4434449;32;20061;-62
2023/10/04 02:17:44;;;;;;;0.85;0.40;;;13.00;99.90;;;;;;4433383;32;20093;-62
2023/10/04 02:20:13;;;;;;;2.25;0.50;;;13.00;99.90;;;;;;4434421;32;20566;-63
2023/10/04 02:22:39;;;;;;;0.30;0.30;;;13.00;99.90;;;;;;4433336;32;20594;-63
2023/10/04 02:25:06;;;;;;;0.40;0.40;;;13.00;99.90;;;;;;4432633;32;20123;-62
2023/10/04 02:27:32;;;;;;;4.55;0.47;;;12.90;99.90;;;;;;4428354;32;20193;-63
2023/10/04 02:29:58;;;;;;;1.52;0.35;;;12.90;99.90;;;;;;4415630;32;20089;-63
2023/10/04 02:32:25;;;;;;;0.30;0.30;;;12.90;99.90;;;;;;4429078;32;20434;-62
2023/10/04 02:34:52;;;;;;;0.15;0.15;;;13.00;99.90;;;;;;4428127;32;20092;-62
2023/10/04 02:37:19;;;;;;;0.40;0.40;;;12.90;99.90;;;;;;4432036;32;20097;-63
2023/10/04 02:39:44;;;;;;;0.68;0.68;;;12.90;99.90;;;;;;4430447;32;20093;-63
2023/10/04 02:42:10;;;;;;;1.45;0.68;;;12.90;99.90;;;;;;4429840;32;20487;-62
2023/10/04 02:44:36;;;;;;;0.30;0.30;;;12.90;99.90;;;;;;4428990;32;20065;-62
2023/10/04 02:47:07;;;;;;;0.30;0.30;;;12.90;99.90;;;;;;4418831;32;20122;-63
2023/10/04 02:49:37;;;;;;;0.65;0.45;;;12.90;99.90;;;;;;4422458;32;20085;-63
2023/10/04 02:52:05;;;;;;;0.22;0.22;;;13.00;99.90;;;;;;4387556;32;20472;-63
2023/10/04 02:54:31;;;;;;;0.60;0.30;;;13.00;99.90;;;;;;4417842;32;20116;-63
2023/10/04 02:56:58;;;;;;;0.65;0.40;;;12.90;99.90;;;;;;4432508;32;20149;-62
2023/10/04 02:59:25;;;;;;;0.20;0.20;;;13.00;99.90;;;;;;4431480;32;20093;-62
2023/10/04 03:01:50;;;;;;;0.40;0.40;;;13.00;99.90;;;;;;4432082;32;20154;-63
2023/10/04 03:04:19;;;;;;;5.47;0.35;;;13.00;99.90;;;;;;4434849;32;20526;-61
2023/10/04 03:06:45;;;;;;;0.30;0.30;;;13.00;99.90;;;;;;4416757;32;20104;-63
2023/10/04 03:09:11;;;;;;;0.30;0.30;;;12.90;99.90;;;;;;4435477;32;20405;-62
2023/10/04 03:11:37;;;;;;;0.37;0.37;;;12.90;99.90;;;;;;4421522;32;20085;-63
2023/10/04 03:14:06;;;;;;;0.40;0.40;;;12.90;99.90;;;;;;4433807;32;20094;-61
2023/10/04 03:16:33;;;;;;;1.08;0.70;;;12.90;99.90;;;;;;4436904;32;20097;-62
2023/10/04 03:18:58;;;;;;;0.30;0.30;;;13.00;99.90;;;;;;4435586;32;20098;-63
2023/10/04 03:21:28;;;;;;;0.60;0.60;;;13.00;99.90;;;;;;4436423;32;20081;-62
2023/10/04 03:23:55;;;;;;;3.60;0.60;;;13.00;99.90;;;;;;4435077;32;20085;-63
2023/10/04 03:26:21;;;;;;;0.85;0.77;;;13.00;99.90;;;;;;4437369;32;20568;-62
2023/10/04 03:28:46;;;;;;;0.37;0.37;;;13.00;99.90;;;;;;4433462;32;20069;-61
2023/10/04 03:31:14;;;;;;;0.22;0.22;;;13.00;99.90;;;;;;4438269;32;20417;-61
2023/10/04 03:33:40;;;;;;;1.08;0.82;;;13.00;99.90;;;;;;4421458;32;20053;-62
2023/10/04 03:36:06;;;;;;;0.30;0.30;;;13.00;99.90;;;;;;4431993;32;20096;-62
2023/10/04 03:38:34;;;;;;;1.17;1.05;;;13.10;99.90;;;;;;4423619;32;20085;-62
2023/10/04 03:41:03;;;;;;;0.30;0.30;;;13.00;99.90;;;;;;4421173;32;20194;-62
2023/10/04 03:43:29;;;;;;;0.85;0.40;;;13.00;99.90;;;;;;4424869;32;20148;-62
2023/10/04 03:45:55;;;;;;;0.43;0.43;;;12.90;99.90;;;;;;4421428;32;20065;-61
2023/10/04 03:48:21;;;;;;;0.20;0.20;;;12.80;99.90;;;;;;4433045;32;20095;-61
2023/10/04 03:50:50;;;;;;;1.98;0.60;;;12.80;99.90;;;;;;4433070;32;20542;-62
2023/10/04 03:53:16;;;;;;;0.37;0.30;;;12.70;99.90;;;;;;4420742;32;20066;-60
2023/10/04 03:55:43;;;;;;;0.30;0.30;;;12.70;99.90;;;;;;4421345;32;20446;-61
2023/10/04 03:58:10;;;;;;;0.30;0.30;;;12.70;99.90;;;;;;4419088;32;20081;-63
2023/10/04 04:00:36;;;;;;;0.88;0.65;;;12.70;99.90;;;;;;4422329;32;20252;-62
2023/10/04 04:03:03;;;;;;;0.40;0.40;;;12.70;99.90;;;;;;4423338;32;20097;-63
2023/10/04 04:05:30;;;;;;;0.40;0.40;;;12.60;99.90;;;;;;4425934;32;20061;-63
2023/10/04 04:07:56;;;;;;;0.65;0.50;;;12.60;99.90;;;;;;4419816;32;20074;-62
2023/10/04 04:10:24;;;;;;;1.35;0.70;;;12.60;99.90;;;;;;4435660;32;20620;-62
2023/10/04 04:12:50;;;;;;;0.20;0.20;;;12.60;99.90;;;;;;4421722;32;20212;-62
2023/10/04 04:15:18;;;;;;;0.60;0.60;;;12.60;99.90;;;;;;4436735;32;20072;-62
2023/10/04 04:17:45;;;;;;;0.37;0.37;;;12.60;99.90;;;;;;4418937;32;20065;-62
2023/10/04 04:20:16;;;;;;;0.50;0.50;;;12.60;99.90;;;;;;4432832;32;20587;-62
2023/10/04 04:22:46;;;;;;;0.43;0.43;;;12.50;99.90;;;;;;4415298;32;20109;-62
2023/10/04 04:25:15;;;;;;;0.60;0.60;;;12.50;99.90;;;;;;4419487;32;20101;-62
2023/10/04 04:27:44;;;;;;;0.40;0.40;;;12.50;99.90;;;;;;4433057;32;20097;-63
2023/10/04 04:30:16;;;;;;;0.50;0.50;;;12.50;99.90;;;;;;4435905;32;21591;-62
2023/10/04 04:32:44;;;;;;;0.50;0.50;;;12.60;99.90;;;;;;4424133;32;20069;-62
2023/10/04 04:35:14;;;;;;;0.62;0.47;;;12.60;99.90;;;;;;4432351;32;20085;-62
2023/10/04 04:37:40;;;;;;;;;;;12.60;99.90;;;;;;4438299;32;20096;-62
2023/10/04 04:40:08;;;;;;;0.25;0.25;;;12.60;99.90;;;;;;4434569;32;19960;-62
2023/10/04 04:42:37;;;;;;;1.52;0.55;;;12.50;99.90;;;;;;4438181;32;20113;-61
2023/10/04 04:45:11;;;;;;;18.98;0.60;;;12.50;99.90;;;;;;4437958;32;20077;-62
2023/10/04 04:47:37;;;;;;;0.30;0.30;;;12.50;99.90;;;;;;4436818;32;20133;-61
2023/10/04 04:50:03;;;;;;;0.40;0.40;;;12.50;99.90;;;;;;4434431;32;20081;-61
2023/10/04 04:52:31;;;;;;;0.95;0.47;;;12.50;99.90;;;;;;4424810;32;20100;-62
2023/10/04 04:54:58;;;;;;;0.32;0.32;;;12.60;99.90;;;;;;4434011;32;20073;-62
2023/10/04 04:57:23;;;;;;;0.40;0.40;;;12.50;99.90;;;;;;4437662;32;20134;-62
2023/10/04 04:59:55;;;;;;;1.77;0.68;;;12.50;99.90;;;;;;4432046;32;20116;-62
2023/10/04 05:02:20;;;;;;;0.30;0.30;;;12.50;99.90;;;;;;4427245;32;20121;-61
2023/10/04 05:04:47;;;;;;;0.20;0.20;;;12.50;99.90;;;;;;4433369;32;20561;-60
2023/10/04 05:07:13;;;;;;;0.20;0.20;;;12.50;99.90;;;;;;4435899;32;20588;-62
2023/10/04 05:09:38;;;;;;;0.40;0.40;;;12.50;99.90;;;;;;4433218;32;20081;-62
2023/10/04 05:12:04;;;;;;;0.37;0.37;;;12.50;99.90;;;;;;4433240;32;20077;-63
2023/10/04 05:14:31;;;;;;;0.30;0.30;;;12.50;99.90;;;;;;4419367;32;20174;-61
2023/10/04 05:16:56;;;;;;;0.30;0.30;;;12.40;99.90;;;;;;4424830;32;20847;-62
2023/10/04 05:19:22;;;;;;;0.62;0.62;;;12.50;99.90;;;;;;4421661;32;20433;-62
2023/10/04 05:21:48;;;;;;;0.82;0.65;;;12.40;99.90;;;;;;4433280;32;20092;-62
2023/10/04 05:24:14;;;;;;;0.32;0.32;;;12.50;99.90;;;;;;4433031;32;20089;-62
2023/10/04 05:26:39;;;;;;;0.73;0.50;;;12.60;99.90;;;;;;4423062;32;20189;-61
2023/10/04 05:29:08;;;;;;;0.20;0.20;;;12.60;99.90;;;;;;4424207;32;20275;-62
2023/10/04 05:31:33;;;;;;;0.40;0.40;;;12.60;99.90;;;;;;4406315;32;20131;-62
2023/10/04 05:33:59;;;;;;;0.68;0.60;;;12.50;99.90;;;;;;4427289;32;20082;-62
2023/10/04 05:36:27;;;;;;;2.45;0.70;;;12.50;99.90;;;;;;4431775;32;20069;-62
2023/10/04 05:38:52;;;;;;;1.40;0.43;;;12.60;99.90;;;;;;4427987;32;20495;-62
2023/10/04 05:41:20;;;;;;;0.60;0.60;;;12.50;99.90;;;;;;4428721;32;20112;-62
2023/10/04 05:43:46;;;;;;;0.20;0.20;;;12.60;99.90;;;;;;4415300;32;20092;-62
2023/10/04 05:46:13;;;;;;;0.40;0.40;;;12.70;99.90;;;;;;4429808;32;20085;-62
2023/10/04 05:48:40;;;;;;;3.92;0.40;;;12.70;99.90;;;;;;4436475;32;20141;-62
2023/10/04 05:51:07;;;;;;;0.20;0.20;;;12.80;99.90;;;;;;4415812;32;20127;-62
2023/10/04 05:53:33;;;;;;;0.30;0.30;;;12.80;99.90;;;;;;4429450;32;20097;-61
2023/10/04 05:55:58;;;;;;;0.37;0.37;;;12.70;99.90;;;;;;4426421;32;20085;-62
2023/10/04 05:58:25;;;;;;;0.50;0.50;;;12.70;99.90;;;;;;4430050;32;20135;-62
2023/10/04 06:00:52;;;;;;;0.65;0.65;;;12.70;99.90;;;;;;4432817;32;20089;-62
2023/10/04 06:03:18;;;;;;;0.35;0.35;;;12.70;99.90;;;;;;4429756;32;20070;-62
2023/10/04 06:05:44;;;;;;;0.93;0.57;;;12.80;99.90;;;;;;4430979;32;20061;-62
2023/10/04 06:08:18;;;;;;;0.77;0.52;;;12.80;99.90;;;;;;4432141;32;20077;-62
2023/10/04 06:10:46;;;;;;;0.20;0.20;;;12.70;99.90;;;;;;4415127;32;20110;-62
2023/10/04 06:13:12;;;;;;;0.40;0.40;;;12.80;99.90;;;;;;4417859;32;20143;-62
2023/10/04 06:15:41;;;;;;;0.30;0.30;;;12.80;99.90;;;;;;4426538;32;20073;-62
2023/10/04 06:18:07;;;;;;;0.40;0.40;;;12.90;99.90;;;;;;4435855;32;20462;-62
2023/10/04 06:20:34;;;;;;;0.30;0.30;;;12.90;99.90;;;;;;4430407;32;20097;-62
2023/10/04 06:23:05;;;;;;;0.20;0.20;;;12.90;99.90;;;;;;4423117;32;20103;-62
2023/10/04 06:25:32;;;;;;;0.40;0.40;;;13.00;99.90;;;;;;4429798;32;20290;-61
2023/10/04 06:27:59;;;;;;;0.40;0.40;;;13.00;99.90;;;;;;4413581;32;20074;-63
2023/10/04 06:30:27;;;;;;;10.25;0.47;;;13.00;99.90;;;;;;4424483;32;20118;-63
2023/10/04 06:32:55;;;;;;;0.22;0.22;;;13.00;99.90;;;;;;4431464;32;20143;-64
2023/10/04 06:35:24;;;;;;;0.30;0.30;;;13.00;99.90;;;;;;4419036;32;20123;-64
2023/10/04 06:37:51;;;;;;;0.30;0.30;;;13.10;99.90;;;;;;4420938;32;20105;-64
2023/10/04 06:40:19;;;;;;;0.30;0.30;;;13.10;99.90;;;;;;4419981;32;20061;-64
2023/10/04 06:42:45;;;;;;;0.37;0.37;;;13.10;99.90;;;;;;4436824;32;20076;-63
2023/10/04 06:45:13;;;;;;;1.17;0.45;;;13.10;99.90;;;;;;4419503;32;20073;-63
2023/10/04 06:47:41;;;;;;;0.40;0.40;;;13.10;99.90;;;;;;4434280;32;20061;-63
2023/10/04 06:50:07;;;;;;;0.62;0.62;;;13.10;99.90;;;;;;4418672;32;20093;-65
2023/10/04 06:52:34;;;;;;;7.22;1.10;;;13.20;99.90;;;;;;4436474;32;20101;-64
2023/10/04 06:55:00;;;;;;;0.52;0.52;;;13.20;99.90;;;;;;4433348;32;20069;-65
2023/10/04 06:57:26;;;;;;;4.68;0.47;;;13.30;99.90;;;;;;4429022;32;20540;-65
2023/10/04 06:59:51;;;;;;;0.30;0.30;;;13.30;99.90;;;;;;4428983;32;20090;-65
2023/10/04 07:02:17;;;;;;;0.30;0.30;;;13.40;99.90;;;;;;4433487;32;20410;-65
2023/10/04 07:04:42;;;;;;;3.10;0.65;;;13.50;99.90;;;;;;4419143;32;20065;-65
2023/10/04 07:07:07;;;;;;;0.40;0.40;;;13.50;99.90;;;;;;4433027;32;20097;-65
2023/10/04 07:09:33;;;;;;;0.43;0.43;;;13.60;99.90;;;;;;4435520;32;20069;-66
2023/10/04 07:11:59;;;;;;;0.25;0.25;;;13.60;99.90;;;;;;4430382;32;20077;-66
2023/10/04 07:14:24;;;;;;;0.60;0.45;;;13.60;99.90;;;;;;4435360;32;20085;-65
2023/10/04 07:16:51;;;;;;;2.62;1.37;;;13.70;99.90;;;;;;4429212;32;20105;-64
2023/10/04 07:19:17;;;;;;;0.40;0.40;;;13.70;99.90;;;;;;4432406;32;20061;-65
2023/10/04 07:21:42;;;;;;;0.30;0.30;;;13.80;99.90;;;;;;4432925;32;20082;-65
2023/10/04 07:24:08;;;;;;;0.95;0.90;;;13.80;99.90;;;;;;4432035;32;20164;-65
2023/10/04 07:26:35;;;;;;;0.60;0.43;;;13.90;99.90;;;;;;4431864;32;20085;-65
2023/10/04 07:29:02;;;;;;;0.30;0.30;;;13.90;99.90;;;;;;4418104;32;20069;-64
2023/10/04 07:31:28;;;;;;;0.32;0.32;;;13.90;99.90;;;;;;4433239;32;20141;-65
2023/10/04 07:33:53;;;;;;;0.95;0.40;;;13.80;99.90;;;;;;4415602;32;20144;-65
2023/10/04 07:36:19;;;;;;;2.42;0.45;;;13.80;99.90;;;;;;4432943;32;20094;-65
2023/10/04 07:38:45;;;;;;;0.22;0.22;;;13.90;99.90;;;;;;4419842;32;20097;-65
2023/10/04 07:41:11;;;;;;;0.40;0.40;;;14.00;99.90;;;;;;4431852;32;20065;-64
2023/10/04 07:43:37;;;;;;;0.90;0.80;;;14.00;99.90;;;;;;4416661;32;20084;-66
2023/10/04 07:46:04;;;;;;;0.60;0.60;;;14.10;99.90;;;;;;4428122;32;20210;-65
2023/10/04 07:48:29;;;;;;;0.40;0.40;;;14.10;99.90;;;;;;4415490;32;20077;-65
2023/10/04 07:50:55;;;;;;;0.40;0.40;;;14.20;99.90;;;;;;4430746;32;20460;-65
2023/10/04 07:53:21;;;;;;;0.35;0.35;;;14.20;99.90;;;;;;4419124;32;20097;-66
2023/10/04 07:55:49;;;;;;;0.32;0.32;;;14.20;99.90;;;;;;4429035;32;20128;-65
2023/10/04 07:58:14;;;;;;;0.20;0.20;;;14.20;99.90;;;;;;4430910;32;20446;-64
2023/10/04 08:00:41;;;;;;;0.40;0.40;;;14.20;99.90;;;;;;4452491;32;20104;-64
2023/10/04 08:03:07;;;;;;;1.17;0.40;;;14.30;99.90;;;;;;4438657;32;20145;-63
2023/10/04 08:05:33;;;;;;;3.03;0.60;;;14.30;99.90;;;;;;4454346;32;20065;-65
2023/10/04 08:08:00;;;;;;;0.50;0.50;;;14.30;99.90;;;;;;4440932;32;20117;-65
2023/10/04 08:10:29;;;;;;;0.40;0.40;;;14.40;99.90;;;;;;4437289;32;20072;-64
2023/10/04 08:12:59;;;;;;;0.30;0.30;;;14.40;99.90;;;;;;4434333;32;20093;-64
2023/10/04 08:15:25;;;;;;;0.30;0.30;;;14.50;99.90;;;;;;4430260;32;20077;-65
2023/10/04 08:17:52;;;;;;;0.52;0.50;;;14.60;99.90;;;;;;4410853;32;21664;-64
2023/10/04 08:20:20;;;;;;;2.03;0.50;;;14.60;99.90;;;;;;4444674;27;20139;-76
2023/10/04 08:22:46;;;;;;;0.40;0.37;;;14.70;99.90;;;;;;4444949;32;20053;-76
2023/10/04 08:25:16;;;;;;;0.40;0.40;;;14.80;99.90;;;;;;4441482;32;20477;-77
2023/10/04 08:27:48;;;;;;;0.73;0.70;;;14.80;99.90;;;;;;4445671;32;20154;-75
2023/10/04 08:30:16;;;;;;;0.30;0.30;;;14.90;99.90;;;;;;4444910;32;20540;-76
2023/10/04 08:32:43;;;;;;;0.40;0.40;;;14.80;99.90;;;;;;4443406;32;20065;-76
2023/10/04 08:35:21;;;;;;;0.47;0.47;;;14.80;99.90;;;;;;4448498;32;20065;-76
2023/10/04 08:37:48;;;;;;;6.07;1.48;;;14.80;99.90;;;;;;4448004;32;20758;-77
2023/10/04 08:40:18;;;;;;;0.30;0.30;;;14.80;99.90;;;;;;4448537;32;20112;-77
2023/10/04 08:42:44;;;;;;;0.80;0.68;;;14.80;99.90;;;;;;4445394;32;20105;-76
2023/10/04 08:45:10;;;;;;;0.68;0.68;;;14.90;99.90;;;;;;4443851;32;20067;-76
2023/10/04 08:47:38;;;;;;;0.22;0.22;;;15.10;99.90;;;;;;4433436;32;20131;-76
2023/10/04 08:50:09;;;;;;;0.60;0.60;;;15.30;99.90;;;;;;4450862;32;20096;-77
2023/10/04 08:52:35;;;;;;;0.25;0.25;;;15.40;99.90;;;;;;4463151;32;20085;-75
2023/10/04 08:55:07;;;;;;;0.40;0.40;;;15.40;99.90;;;;;;4459550;32;20082;-76
2023/10/04 08:57:40;;;;;;;0.30;0.30;;;15.50;99.90;;;;;;4459778;26;20135;-63
2023/10/04 09:02:35;;;;;;;0.22;0.22;;;15.50;99.90;;;;;;4413652;32;20082;-64
2023/10/04 09:05:04;;;;;;;0.30;0.30;;;15.60;99.90;;;;;;4411047;32;20115;-65
2023/10/04 09:07:30;;;;;;;0.37;0.37;;;15.60;99.90;;;;;;4394893;32;20158;-65
2023/10/04 09:09:57;;;;;;;0.22;0.22;;;15.70;99.90;;;;;;4401344;32;20082;-64
2023/10/04 09:12:22;;;;;;;3.22;0.98;;;15.60;99.90;;;;;;4417340;32;20089;-64
2023/10/04 09:14:48;;;;;;;0.50;0.50;;;15.50;99.90;;;;;;4407028;32;20087;-65
2023/10/04 09:17:14;;;;;;;0.60;0.60;;;15.50;99.90;;;;;;4412932;32;20101;-65
2023/10/04 09:19:41;;;;;;;0.52;0.35;;;15.50;99.90;;;;;;4417944;32;20334;-64
2023/10/04 09:22:08;;;;;;;2.95;0.95;;;15.50;99.90;;;;;;4405472;32;20881;-64
2023/10/04 09:24:53;;;;;;;2.37;1.00;;;15.50;99.90;;;;;;4418534;32;20081;-64
2023/10/04 09:27:19;;;;;;;0.40;0.40;;;15.50;99.90;;;;;;4408610;32;20073;-63
2023/10/04 09:29:45;;;;;;;0.37;0.37;;;15.60;99.90;;;;;;4414998;32;20083;-63
2023/10/04 09:32:10;;;;;;;1.98;0.50;;;15.60;99.90;;;;;;4405926;32;20128;-64
2023/10/04 09:34:36;;;;;;;0.43;0.43;;;15.60;99.90;;;;;;4397648;32;20097;-65
2023/10/04 09:37:01;;;;;;;0.30;0.30;;;15.50;99.90;;;;;;4414880;32;20101;-64
2023/10/04 09:39:28;;;;;;;0.30;0.30;;;15.60;99.90;;;;;;4404841;32;20109;-65
2023/10/04 09:41:55;;;;;;;2.83;0.90;;;15.60;99.90;;;;;;4404391;32;20128;-65
2023/10/04 09:44:25;;;;;;;0.40;0.40;;;15.70;99.90;;;;;;4402956;32;20090;-65
2023/10/04 09:46:57;;;;;;;2.63;1.83;;;15.80;99.90;;;;;;4402309;32;20148;-65
2023/10/04 09:49:25;;;;;;;0.30;0.30;;;16.00;99.90;;;;;;4381603;32;20723;-64
2023/10/04 09:51:53;;;;;;;0.47;0.45;;;16.10;99.90;;;;;;4385527;32;20491;-64
2023/10/04 09:54:20;;;;;;;0.60;0.60;;;16.20;99.90;;;;;;4369643;32;20073;-65
2023/10/04 09:56:47;;;;;;;0.30;0.30;;;16.20;99.90;;;;;;4395482;32;20511;-65
2023/10/04 09:59:19;;;;;;;0.93;0.52;;;16.30;99.90;;;;;;4393725;32;20077;-64
2023/10/04 10:04:16;;;;;;;0.30;0.30;;;16.20;99.90;;;;;;4398105;32;20086;-65
2023/10/04 10:06:54;;;;;;;0.50;0.50;;;16.20;99.90;;;;;;4381503;32;20069;-64
2023/10/04 10:09:22;;;;;;;0.45;0.45;;;16.20;99.90;;;;;;4400425;32;20053;-65
2023/10/04 10:11:52;;;;;;;0.45;0.45;;;16.20;99.90;;;;;;4403517;32;20117;-65
2023/10/04 10:14:20;;;;;;;0.30;0.30;;;16.20;99.90;;;;;;4403879;32;20550;-64
2023/10/04 10:16:46;;;;;;;0.40;0.40;;;16.30;99.90;;;;;;4384024;32;20090;-65
2023/10/04 10:19:12;;;;;;;0.37;0.37;;;16.40;99.90;;;;;;4402067;32;20070;-65
2023/10/04 10:22:08;;;;;;;0.60;0.52;;;16.60;99.90;;;;;;4406684;32;20074;-65
2023/10/04 10:24:40;;;;;;;0.30;0.30;;;16.60;99.90;;;;;;4391100;32;20549;-64
2023/10/04 10:27:08;;;;;;;0.30;0.30;;;16.60;99.90;;;;;;4402123;32;20062;-64
2023/10/04 10:29:37;;;;;;;0.20;0.20;;;16.80;99.90;;;;;;4403229;32;20217;-64
2023/10/04 10:32:09;;;;;;;1.20;0.68;;;16.80;99.90;;;;;;4390121;32;20095;-65
2023/10/04 10:34:34;;;;;;;0.50;0.50;;;16.70;99.90;;;;;;4393327;32;20496;-65
2023/10/04 10:37:22;;;;;;;0.50;0.50;;;16.70;99.90;;;;;;4403582;32;20130;-64
2023/10/04 10:39:52;;;;;;;0.30;0.30;;;16.60;99.90;;;;;;4383098;32;20065;-65
2023/10/04 10:42:18;;;;;;;0.37;0.37;;;16.70;99.90;;;;;;4387710;32;20073;-65
2023/10/04 10:44:45;;;;;;;3.15;0.47;;;16.60;99.90;;;;;;4391371;32;20086;-65
2023/10/04 10:47:26;;;;;;;0.30;0.30;;;16.70;99.90;;;;;;4404532;32;20827;-64
2023/10/04 10:50:04;;;;;;;2.83;1.35;;;16.80;99.90;;;;;;4405905;32;20081;-64
2023/10/04 10:52:34;;;;;;;0.40;0.40;;;16.90;99.90;;;;;;4392219;32;20089;-65
2023/10/04 10:55:01;;;;;;;1.40;0.77;;;17.00;99.90;;;;;;4384530;32;20943;-65
2023/10/04 10:57:29;;;;;;;0.40;0.40;;;17.10;99.90;;;;;;4374228;32;20117;-64
2023/10/04 10:59:56;;;;;;;0.40;0.40;;;17.30;99.90;;;;;;4394960;32;20522;-65
2023/10/04 11:02:23;;;;;;;0.73;0.55;;;17.30;99.90;;;;;;4409145;32;20093;-65
2023/10/04 11:04:50;;;;;;;1.05;0.60;;;17.30;99.90;;;;;;4404717;32;20156;-66
2023/10/04 11:07:17;;;;;;;8.93;0.47;;;17.30;99.90;;;;;;4402750;32;20085;-65
2023/10/04 11:09:54;;;;;;;0.40;0.40;;;17.30;99.90;;;;;;4404714;32;20538;-64
2023/10/04 11:12:21;;;;;;;0.60;0.60;;;17.50;99.90;;;;;;4402229;32;20086;-65
2023/10/04 11:14:47;;;;;;;0.50;0.50;;;17.50;99.90;;;;;;4403629;32;20086;-65
2023/10/04 11:17:14;;;;;;;0.40;0.40;;;17.20;99.90;;;;;;4396900;32;20081;-65
2023/10/04 11:19:40;;;;;;;1.42;1.33;;;17.10;99.90;;;;;;4401182;32;20097;-66
2023/10/04 11:22:06;;;;;;;0.47;0.47;;;17.00;99.90;;;;;;4404891;32;20101;-65
2023/10/04 11:24:31;;;;;;;0.37;0.37;;;16.90;99.90;;;;;;4400527;32;20090;-65
2023/10/04 11:26:57;;;;;;;0.40;0.40;;;16.90;99.90;;;;;;4402118;32;20629;-64
2023/10/04 11:29:25;;;;;;;0.35;0.35;;;17.00;99.90;;;;;;4401968;32;20517;-65
2023/10/04 11:31:51;;;;;;;0.50;0.50;;;17.00;99.90;;;;;;4406027;32;20148;-65
2023/10/04 11:34:16;;;;;;;0.28;0.28;;;16.90;99.90;;;;;;4402794;32;20312;-65
2023/10/04 11:36:44;;;;;;;1.33;1.05;;;16.90;99.90;;;;;;4403796;32;20449;-65
2023/10/04 11:39:12;;;;;;;0.40;0.40;;;17.20;99.90;;;;;;4398894;32;20089;-65
2023/10/04 11:41:39;;;;;;;0.60;0.60;;;17.50;99.90;;;;;;4403297;32;20117;-65
2023/10/04 11:44:07;;;;;;;0.30;0.30;;;17.90;99.90;;;;;;4407919;32;20124;-65
2023/10/04 11:46:54;;;;;;;0.47;0.47;;;18.20;99.90;;;;;;4392667;32;20070;-65
2023/10/04 11:49:19;;;;;;;0.50;0.50;;;18.60;99.90;;;;;;4383279;32;90115;-66
2023/10/04 11:51:45;;;;;;;0.50;0.50;;;19.10;99.90;;;;;;4402298;32;20144;-65
2023/10/04 11:54:11;;;;;;;1.25;0.68;;;19.40;99.90;;;;;;4407208;32;20089;-65
2023/10/04 11:56:40;;;;;;;1.58;0.55;;;19.50;99.90;;;;;;4405797;32;20086;-65
2023/10/04 11:59:06;;;;;;;1.17;0.50;;;19.40;99.90;;;;;;4405723;32;20077;-65
2023/10/04 12:01:31;;;;;;;0.35;0.35;;;19.40;99.90;;;;;;4405772;32;20061;-65
2023/10/04 12:03:57;;;;;;;0.25;0.25;;;19.50;99.90;;;;;;4403027;32;20463;-66
2023/10/04 12:06:24;;;;;;;0.68;0.68;;;19.80;99.90;;;;;;4405484;32;20058;-65
2023/10/04 12:08:50;;;;;;;0.50;0.50;;;20.00;99.90;;;;;;4406491;32;20077;-64
2023/10/04 12:11:22;;;;;;;0.25;0.25;;;20.30;99.90;;;;;;4393585;32;20109;-65
2023/10/04 12:13:48;;;;;;;1.15;0.35;;;20.50;99.90;;;;;;4407811;32;20089;-65
2023/10/04 12:16:14;;;;;;;0.30;0.30;;;20.40;99.90;;;;;;4413004;32;20094;-65
2023/10/04 12:18:39;;;;;;;2.12;0.40;;;19.80;99.90;;;;;;4410466;32;20750;-65
2023/10/04 12:21:05;;;;;;;0.40;0.40;;;19.20;99.90;;;;;;4412746;32;20077;-65
2023/10/04 12:23:32;;;;;;;2.17;1.30;;;18.80;99.90;;;;;;4410617;32;20098;-64
2023/10/04 12:25:58;;;;;;;0.88;0.47;;;18.40;99.90;;;;;;4412743;32;20429;-64
2023/10/04 12:28:23;;;;;;;1.55;0.82;;;18.30;99.90;;;;;;4408330;32;20081;-65
2023/10/04 12:30:49;;;;;;;3.53;0.62;;;18.30;99.90;;;;;;4409962;32;20086;-64
2023/10/04 12:33:14;;;;;;;0.30;0.30;;;18.70;99.90;;;;;;4401410;32;20073;-64
2023/10/04 12:35:40;;;;;;;0.95;0.52;;;19.20;99.90;;;;;;4405489;32;20098;-64
2023/10/04 12:38:05;;;;;;;0.20;0.20;;;19.80;99.90;;;;;;4403738;32;20081;-64
2023/10/04 12:40:32;;;;;;;2.53;1.02;;;20.10;99.90;;;;;;4412091;32;20077;-64
2023/10/04 12:42:57;;;;;;;0.20;0.20;;;20.20;99.90;;;;;;4395930;32;20835;-63
2023/10/04 12:45:23;;;;;;;9.50;0.60;;;20.20;99.90;;;;;;4410876;32;20077;-65
2023/10/04 12:47:49;;;;;;;0.65;0.65;;;20.10;99.90;;;;;;4413401;32;20106;-66
2023/10/04 12:50:15;;;;;;;0.43;0.43;;;19.60;99.90;;;;;;4413419;32;20064;-64
2023/10/04 12:52:41;;;;;;;0.25;0.25;;;19.20;99.90;;;;;;4410529;32;20094;-65